Time;durP1;ratioP1;P1;durP2;ratioP2;P2;SDS_P1;SDS_P2;PMS_P1;PMS_P2;Temp;Humidity;BMP_temperature;BMP_pressure;BME280_temperature;BME280_humidity;BME280_pressure;Samples;Min_cycle;Max_cycle;Signal;HPM_P1;HPM_P2
2022/09/02 00:00:51;;;;;;;1.95;0.80;;;;;;;13.41;52.77;98835.41;5013630;28;20048;-69
2022/09/02 00:03:18;;;;;;;0.60;0.60;;;;;;;13.23;52.24;98840.41;5029863;28;20057;-70
2022/09/02 00:05:44;;;;;;;0.80;0.60;;;;;;;13.11;52.69;98838.47;4996823;28;20041;-69
2022/09/02 00:08:10;;;;;;;0.50;0.50;;;;;;;13.28;52.50;98840.63;4996602;28;20052;-70
2022/09/02 00:10:39;;;;;;;0.52;0.52;;;;;;;13.44;52.30;98845.69;5012081;28;20076;-73
2022/09/02 00:13:06;;;;;;;1.17;0.60;;;;;;;13.45;52.02;98844.66;5027818;28;20127;-69
2022/09/02 00:15:32;;;;;;;0.60;0.60;;;;;;;13.21;52.30;98841.59;4995732;28;20126;-69
2022/09/02 00:17:59;;;;;;;0.50;0.50;;;;;;;13.34;51.71;98847.06;4995235;28;20045;-70
2022/09/02 00:20:27;;;;;;;0.60;0.60;;;;;;;13.48;51.56;98848.78;5011711;28;20136;-70
2022/09/02 00:22:52;;;;;;;0.65;0.65;;;;;;;13.43;51.55;98845.88;4995531;28;20102;-70
2022/09/02 00:25:18;;;;;;;2.88;0.60;;;;;;;13.52;51.11;98845.53;4996899;28;20127;-69
2022/09/02 00:27:44;;;;;;;0.50;0.50;;;;;;;13.56;50.87;98846.78;4996814;28;20054;-69
2022/09/02 00:30:11;;;;;;;1.33;0.70;;;;;;;13.62;50.92;98850.53;5029512;28;20041;-68
2022/09/02 00:32:38;;;;;;;1.63;0.70;;;;;;;13.57;51.02;98859.13;5013186;28;20099;-68
2022/09/02 00:35:05;;;;;;;0.50;0.50;;;;;;;13.55;50.82;98849.66;5012835;28;20078;-68
2022/09/02 00:37:33;;;;;;;0.63;0.40;;;;;;;13.52;50.86;98856.22;5029333;28;20045;-69
2022/09/02 00:39:59;;;;;;;1.63;0.60;;;;;;;13.44;51.17;98856.34;4996161;28;20055;-69
2022/09/02 00:42:25;;;;;;;2.47;0.55;;;;;;;13.61;51.07;98853.41;5028218;28;20060;-70
2022/09/02 00:44:52;;;;;;;2.97;0.60;;;;;;;13.52;51.23;98845.53;4994722;28;20143;-70
2022/09/02 00:47:18;;;;;;;0.55;0.55;;;;;;;13.40;51.38;98847.09;4994866;28;20053;-71
2022/09/02 00:49:47;;;;;;;0.45;0.45;;;;;;;13.55;51.75;98850.47;4994471;28;20532;-70
2022/09/02 00:52:19;;;;;;;0.95;0.50;;;;;;;13.69;51.41;98855.88;5027170;28;20045;-70
2022/09/02 00:55:09;;;;;;;0.60;0.60;;;;;;;13.74;50.94;98838.28;5010805;28;20433;-70
2022/09/02 00:57:39;;;;;;;0.65;0.60;;;;;;;13.63;51.37;98851.31;5028970;28;20056;-70
2022/09/02 01:00:17;;;;;;;0.75;0.52;;;;;;;13.62;51.17;98823.84;5012689;28;20444;-70
2022/09/02 01:02:50;;;;;;;0.55;0.55;;;;;;;13.55;51.10;98823.81;4996614;28;20049;-70
2022/09/02 01:05:19;;;;;;;0.95;0.55;;;;;;;13.61;51.06;98843.53;5017034;28;20068;-71
2022/09/02 01:07:45;;;;;;;0.90;0.57;;;;;;;13.57;51.33;98840.44;4984121;28;20091;-70
2022/09/02 01:10:16;;;;;;;0.50;0.50;;;;;;;13.64;51.19;98853.81;5000119;28;20071;-72
2022/09/02 01:12:42;;;;;;;1.63;0.60;;;;;;;13.32;51.41;98839.25;5000686;28;20041;-70
2022/09/02 01:15:10;;;;;;;0.70;0.70;;;;;;;13.34;51.73;98833.72;4999985;28;20049;-72
2022/09/02 01:17:42;;;;;;;1.05;0.50;;;;;;;13.44;51.78;98832.34;5031622;28;20037;-71
2022/09/02 01:20:13;;;;;;;1.25;0.63;;;;;;;13.27;52.40;98836.34;5031344;28;20064;-70
2022/09/02 01:22:40;;;;;;;0.50;0.50;;;;;;;13.08;53.18;98831.69;5014393;28;20094;-70
2022/09/02 01:25:12;;;;;;;1.02;0.60;;;;;;;13.44;52.33;98835.00;5046635;28;20380;-71
2022/09/02 01:27:38;;;;;;;0.60;0.60;;;;;;;13.31;52.03;98834.09;4997636;28;20041;-70
2022/09/02 01:30:06;;;;;;;0.50;0.50;;;;;;;13.28;52.13;98821.16;4997381;28;20044;-70
2022/09/02 01:32:33;;;;;;;0.50;0.50;;;;;;;13.18;52.34;98842.84;5013888;28;20539;-73
2022/09/02 01:34:59;;;;;;;4.40;0.52;;;;;;;13.28;52.13;98832.63;4999257;28;20049;-71
2022/09/02 01:37:26;;;;;;;2.03;0.50;;;;;;;13.32;52.06;98838.41;5016039;28;20509;-72
2022/09/02 01:39:52;;;;;;;0.45;0.45;;;;;;;13.33;52.05;98840.88;4999774;28;20061;-72
2022/09/02 01:42:19;;;;;;;4.35;0.60;;;;;;;13.57;51.74;98843.13;4999471;28;20473;-72
2022/09/02 01:44:45;;;;;;;0.73;0.60;;;;;;;13.39;51.69;98848.09;5031782;28;20528;-72
2022/09/02 01:47:15;;;;;;;0.40;0.40;;;;;;;13.63;51.43;98852.16;4999075;28;20038;-72
2022/09/02 01:49:42;;;;;;;2.78;0.60;;;;;;;13.44;51.71;98848.34;5015490;28;20048;-70
2022/09/02 01:52:10;;;;;;;1.23;0.50;;;;;;;13.18;51.72;98853.50;5015687;28;20064;-71
2022/09/02 01:54:37;;;;;;;2.17;0.55;;;;;;;13.30;52.28;98841.28;5015157;28;20045;-71
2022/09/02 01:57:03;;;;;;;2.25;0.80;;;;;;;13.04;52.87;98845.56;5032291;28;20037;-71
2022/09/02 01:59:29;;;;;;;0.88;0.43;;;;;;;13.15;52.71;98847.72;4999347;28;20041;-71
2022/09/02 02:01:55;;;;;;;1.17;0.60;;;;;;;13.23;52.58;98847.59;4983642;28;20048;-69
2022/09/02 02:04:23;;;;;;;0.50;0.50;;;;;;;13.18;52.25;98853.50;4999381;28;20511;-69
2022/09/02 02:06:51;;;;;;;1.15;0.90;;;;;;;13.04;52.70;98848.25;5016318;28;20051;-70
2022/09/02 02:09:17;;;;;;;0.50;0.50;;;;;;;13.27;52.53;98847.00;4999161;28;20041;-69
2022/09/02 02:11:45;;;;;;;0.52;0.52;;;;;;;13.25;52.39;98843.69;5031967;28;20064;-69
2022/09/02 02:14:14;;;;;;;0.87;0.60;;;;;;;13.40;51.93;98849.78;5015882;28;20056;-70
2022/09/02 02:16:46;;;;;;;0.60;0.60;;;;;;;13.44;51.61;98859.03;4999295;28;20144;-68
2022/09/02 02:19:12;;;;;;;0.50;0.50;;;;;;;13.42;51.75;98860.25;5015436;28;20501;-70
2022/09/02 02:21:38;;;;;;;0.50;0.50;;;;;;;13.51;51.58;98867.88;5031807;28;20659;-69
2022/09/02 02:24:06;;;;;;;0.40;0.40;;;;;;;13.47;50.84;98866.63;4998938;28;20413;-69
2022/09/02 02:26:33;;;;;;;0.40;0.40;;;;;;;13.38;50.96;98874.97;5032990;28;20132;-70
2022/09/02 02:28:59;;;;;;;0.57;0.32;;;;;;;13.30;51.06;98875.94;5015362;28;20421;-70
2022/09/02 02:31:26;;;;;;;0.50;0.50;;;;;;;13.34;51.05;98873.72;4999220;28;20148;-70
2022/09/02 02:33:52;;;;;;;0.82;0.40;;;;;;;13.44;50.93;98879.53;5015004;28;20053;-70
2022/09/02 02:36:18;;;;;;;1.65;0.50;;;;;;;13.43;50.78;98881.38;5015037;28;20412;-70
2022/09/02 02:38:45;;;;;;;0.40;0.40;;;;;;;13.34;50.92;98887.06;5015147;28;20416;-70
2022/09/02 02:41:13;;;;;;;0.52;0.30;;;;;;;13.56;50.68;98886.81;5031501;28;20569;-70
2022/09/02 02:43:39;;;;;;;0.35;0.30;;;;;;;13.44;50.80;98884.84;5014877;28;20042;-69
2022/09/02 02:46:06;;;;;;;0.63;0.40;;;;;;;13.45;50.94;98891.88;4998788;28;20041;-70
2022/09/02 02:48:33;;;;;;;0.38;0.38;;;;;;;13.51;50.70;98893.75;5014912;28;20041;-70
2022/09/02 02:50:59;;;;;;;2.38;0.50;;;;;;;13.29;50.93;98894.81;5031366;28;20041;-71
2022/09/02 02:53:28;;;;;;;0.50;0.50;;;;;;;13.19;51.11;98895.13;4998718;28;20872;-69
2022/09/02 02:55:55;;;;;;;2.65;0.55;;;;;;;13.29;51.15;98897.47;4998862;28;20447;-70
2022/09/02 02:58:21;;;;;;;0.55;0.55;;;;;;;13.24;51.11;98905.22;5014327;28;20045;-70
2022/09/02 03:00:50;;;;;;;0.75;0.60;;;;;;;13.13;51.49;98903.09;5014493;28;20052;-70
2022/09/02 03:03:18;;;;;;;0.77;0.60;;;;;;;13.13;51.59;98900.44;4998374;28;20166;-70
2022/09/02 03:05:47;;;;;;;0.70;0.63;;;;;;;13.21;52.03;98898.44;4998338;28;20065;-71
2022/09/02 03:08:19;;;;;;;2.10;0.82;;;;;;;13.34;51.77;98908.38;5014293;28;20462;-69
2022/09/02 03:10:49;;;;;;;2.03;0.68;;;;;;;13.27;52.11;98900.31;5014697;28;20046;-68
2022/09/02 03:13:15;;;;;;;0.70;0.55;;;;;;;13.04;52.49;98899.72;4997571;28;20049;-69
2022/09/02 03:15:47;;;;;;;0.52;0.52;;;;;;;13.16;52.19;98884.84;4997850;28;20048;-68
2022/09/02 03:18:13;;;;;;;0.50;0.50;;;;;;;13.13;52.30;98906.56;5014063;28;20041;-69
2022/09/02 03:20:40;;;;;;;1.67;0.60;;;;;;;13.27;52.17;98910.16;5030289;28;20060;-69
2022/09/02 03:23:07;;;;;;;1.30;0.60;;;;;;;13.33;51.82;98904.09;5013838;28;20050;-68
2022/09/02 03:25:34;;;;;;;0.70;0.60;;;;;;;13.37;51.71;98906.16;5030115;28;20057;-68
2022/09/02 03:28:03;;;;;;;2.67;0.57;;;;;;;13.05;52.08;98909.34;5030071;28;20049;-70
2022/09/02 03:30:30;;;;;;;2.45;0.65;;;;;;;13.15;52.17;98909.88;4997497;28;20041;-69
2022/09/02 03:33:01;;;;;;;0.57;0.57;;;;;;;13.31;51.88;98912.28;4981331;28;20041;-69
2022/09/02 03:35:27;;;;;;;0.60;0.60;;;;;;;13.28;51.11;98907.31;5014381;28;20658;-70
2022/09/02 03:37:54;;;;;;;2.13;0.50;;;;;;;13.35;51.02;98916.19;4997030;28;20539;-70
2022/09/02 03:40:25;;;;;;;0.50;0.50;;;;;;;13.35;50.98;98916.19;4997782;28;20049;-70
2022/09/02 03:42:53;;;;;;;1.30;1.20;;;;;;;13.34;50.52;98925.22;4997459;28;20227;-71
2022/09/02 03:45:20;;;;;;;0.60;0.60;;;;;;;13.40;50.04;98929.78;4997145;28;20033;-70
2022/09/02 03:47:52;;;;;;;2.15;0.50;;;;;;;13.49;49.68;98923.28;5013361;28;20049;-73
2022/09/02 03:50:24;;;;;;;0.43;0.43;;;;;;;13.79;49.06;98934.59;5013858;28;20045;-69
2022/09/02 03:52:52;;;;;;;0.40;0.40;;;;;;;13.81;48.09;98934.41;4997507;28;20041;-70
2022/09/02 03:55:20;;;;;;;0.45;0.40;;;;;;;13.91;47.15;98941.03;5029770;28;20056;-70
2022/09/02 03:57:46;;;;;;;2.30;0.45;;;;;;;13.96;46.52;98938.56;5013218;28;20049;-70
2022/09/02 04:00:14;;;;;;;3.80;0.70;;;;;;;14.17;45.83;98943.84;5013056;28;20453;-71
2022/09/02 04:02:40;;;;;;;1.73;0.60;;;;;;;14.06;45.64;98952.41;5012599;28;20522;-70
2022/09/02 04:05:11;;;;;;;1.83;0.50;;;;;;;14.30;45.46;98953.81;5013737;28;20103;-72
2022/09/02 04:07:39;;;;;;;0.68;0.40;;;;;;;13.96;46.36;98953.78;4997103;28;20041;-70
2022/09/02 04:10:07;;;;;;;3.38;0.60;;;;;;;14.14;46.67;98954.09;5012954;28;20041;-70
2022/09/02 04:12:35;;;;;;;1.60;0.50;;;;;;;13.87;46.68;98953.09;5013060;28;20041;-71
2022/09/02 04:15:04;;;;;;;0.65;0.50;;;;;;;14.07;46.75;98939.91;5013226;28;20512;-69
2022/09/02 04:17:30;;;;;;;0.50;0.50;;;;;;;13.95;46.79;98958.28;4996925;28;20393;-66
2022/09/02 04:19:56;;;;;;;0.85;0.70;;;;;;;14.17;46.85;98959.03;5012857;28;20045;-65
2022/09/02 04:22:22;;;;;;;0.57;0.55;;;;;;;14.37;46.12;98973.34;5012726;28;20536;-69
2022/09/02 04:24:49;;;;;;;0.55;0.52;;;;;;;14.47;45.72;98973.81;5045515;28;20077;-69
2022/09/02 04:27:15;;;;;;;0.73;0.40;;;;;;;14.48;45.67;98967.47;5029330;28;20115;-68
2022/09/02 04:29:43;;;;;;;1.05;0.55;;;;;;;14.28;46.62;98974.53;5013155;28;20045;-68
2022/09/02 04:32:10;;;;;;;2.25;0.50;;;;;;;14.63;46.38;98970.81;4980356;28;20077;-71
2022/09/02 04:34:36;;;;;;;1.13;0.40;;;;;;;14.66;45.82;98971.22;5012542;28;20058;-71
2022/09/02 04:37:03;;;;;;;0.40;0.40;;;;;;;14.27;46.35;98975.59;4996590;28;20132;-70
2022/09/02 04:39:29;;;;;;;0.40;0.40;;;;;;;14.39;46.41;98976.66;5032358;28;20148;-71
2022/09/02 04:41:56;;;;;;;0.40;0.40;;;;;;;14.54;46.15;98961.31;5000758;28;20056;-70
2022/09/02 04:44:24;;;;;;;0.57;0.40;;;;;;;14.77;45.61;98976.00;5000733;28;20049;-70
2022/09/02 04:46:51;;;;;;;0.30;0.30;;;;;;;14.87;45.63;98971.09;5033372;28;20041;-69
2022/09/02 04:49:20;;;;;;;0.82;0.40;;;;;;;14.59;46.03;98981.06;5000722;28;20460;-69
2022/09/02 04:51:49;;;;;;;0.73;0.50;;;;;;;14.36;46.10;98974.38;5002461;28;20065;-68
2022/09/02 04:54:15;;;;;;;0.93;0.60;;;;;;;14.63;45.81;98984.16;5017030;28;20049;-69
2022/09/02 04:56:45;;;;;;;1.02;0.50;;;;;;;14.74;45.92;98987.09;4998716;28;20049;-67
2022/09/02 04:59:11;;;;;;;2.47;0.50;;;;;;;14.68;45.41;98990.53;4998262;28;20115;-69
2022/09/02 05:01:41;;;;;;;0.45;0.40;;;;;;;15.01;45.08;98988.81;5015409;28;20053;-69
2022/09/02 05:04:13;;;;;;;1.00;0.55;;;;;;;14.82;45.08;98988.78;4999308;28;20424;-69
2022/09/02 05:06:45;;;;;;;0.40;0.40;;;;;;;14.98;44.57;98985.72;4981537;28;20046;-69
2022/09/02 05:09:17;;;;;;;2.60;0.68;;;;;;;15.00;44.85;98978.34;4999708;28;20509;-69
2022/09/02 05:11:48;;;;;;;0.70;0.70;;;;;;;15.00;44.71;98986.34;5015265;28;20049;-69
2022/09/02 05:14:16;;;;;;;0.50;0.50;;;;;;;15.27;44.16;98997.94;4999715;28;20131;-68
2022/09/02 05:16:44;;;;;;;0.60;0.60;;;;;;;15.47;44.03;99001.50;4998604;28;20068;-68
2022/09/02 05:19:13;;;;;;;;;;;;;;;15.71;43.24;99007.06;4999726;28;20041;-68
2022/09/02 05:21:43;;;;;;;2.13;0.50;;;;;;;15.64;43.66;98984.81;4999192;28;20391;-69
2022/09/02 05:24:13;;;;;;;1.10;0.60;;;;;;;15.73;43.40;99007.66;5015865;28;20140;-69
2022/09/02 05:26:43;;;;;;;0.57;0.50;;;;;;;16.00;42.60;99006.66;5014705;28;20180;-72
2022/09/02 05:29:12;;;;;;;2.10;0.73;;;;;;;15.91;42.70;99004.38;5015198;28;20045;-72
2022/09/02 05:31:40;;;;;;;1.27;0.80;;;;;;;15.55;43.74;99006.63;5015113;28;20508;-70
2022/09/02 05:34:07;;;;;;;1.50;0.80;;;;;;;15.46;43.18;99013.22;5015341;28;20149;-71
2022/09/02 05:36:34;;;;;;;1.40;0.80;;;;;;;15.78;42.88;99005.22;4998648;28;20510;-70
2022/09/02 05:39:00;;;;;;;0.50;0.50;;;;;;;15.61;42.99;99017.34;4998066;28;20073;-69
2022/09/02 05:41:26;;;;;;;1.52;0.80;;;;;;;15.96;42.19;99004.59;5031444;28;20213;-70
2022/09/02 05:43:59;;;;;;;0.50;0.50;;;;;;;16.06;42.31;99013.00;4983385;28;20049;-68
2022/09/02 05:46:26;;;;;;;0.68;0.47;;;;;;;15.85;42.67;99023.97;5014352;28;20127;-69
2022/09/02 05:49:16;;;;;;;2.42;0.63;;;;;;;16.07;42.15;99036.91;4998441;28;20103;-70
2022/09/02 05:51:48;;;;;;;0.80;0.47;;;;;;;16.48;41.35;99034.81;5021455;28;20067;-70
2022/09/02 05:54:23;;;;;;;2.25;0.70;;;;;;;16.70;41.55;99044.25;5034751;28;20059;-69
2022/09/02 05:56:52;;;;;;;2.08;0.60;;;;;;;16.47;40.96;99053.78;5018051;28;20036;-70
2022/09/02 05:59:21;;;;;;;1.88;0.82;;;;;;;16.51;41.13;99053.16;5034272;28;20048;-70
2022/09/02 06:01:48;;;;;;;3.22;1.00;;;;;;;16.57;41.29;99062.22;5050748;28;20049;-69
2022/09/02 06:04:14;;;;;;;1.63;0.60;;;;;;;16.21;41.89;99057.31;5017649;28;20057;-69
2022/09/02 06:06:41;;;;;;;1.10;0.88;;;;;;;16.22;41.90;99055.47;5017259;28;20052;-69
2022/09/02 06:09:10;;;;;;;2.28;0.90;;;;;;;16.46;42.02;99063.69;5034316;28;20187;-70
2022/09/02 06:11:44;;;;;;;3.17;0.77;;;;;;;16.57;41.52;99067.59;5050269;28;20047;-72
2022/09/02 06:14:20;;;;;;;2.83;1.00;;;;;;;16.67;41.40;99060.75;5034289;28;20496;-69
2022/09/02 06:16:49;;;;;;;1.65;1.10;;;;;;;16.72;41.34;99076.22;5033862;28;20039;-69
2022/09/02 06:19:24;;;;;;;2.20;1.35;;;;;;;16.94;41.25;99071.41;5050302;28;20137;-72
2022/09/02 06:21:53;;;;;;;2.08;1.00;;;;;;;17.20;40.37;99076.66;5034178;28;20150;-69
2022/09/02 06:24:20;;;;;;;1.88;0.75;;;;;;;17.40;39.82;99072.84;5033639;28;20049;-68
2022/09/02 06:26:49;;;;;;;1.13;0.70;;;;;;;17.34;38.39;99071.00;5017112;28;20064;-70
2022/09/02 06:29:15;;;;;;;0.50;0.50;;;;;;;17.16;38.99;99094.22;5033762;28;20118;-68
2022/09/02 06:31:44;;;;;;;3.22;0.70;;;;;;;17.13;38.41;99097.34;5017205;28;20045;-71
2022/09/02 06:34:13;;;;;;;0.60;0.50;;;;;;;16.78;38.95;99081.56;5016927;28;20045;-69
2022/09/02 06:36:43;;;;;;;2.88;0.60;;;;;;;16.83;39.32;99057.63;5033406;28;20496;-69
2022/09/02 06:39:11;;;;;;;0.75;0.60;;;;;;;16.93;39.21;99105.44;5017088;28;20087;-69
2022/09/02 06:41:38;;;;;;;3.47;0.60;;;;;;;16.95;39.05;99107.91;5017147;28;20102;-70
2022/09/02 06:44:09;;;;;;;2.40;1.10;;;;;;;17.22;38.67;99102.22;5017345;28;20128;-69
2022/09/02 06:46:39;;;;;;;2.38;0.98;;;;;;;17.75;37.59;99109.00;5016962;28;20041;-69
2022/09/02 06:49:07;;;;;;;0.70;0.68;;;;;;;17.88;37.47;99116.16;5016944;28;20053;-72
2022/09/02 06:51:37;;;;;;;3.63;1.13;;;;;;;18.01;37.30;99111.50;5000828;28;20045;-70
2022/09/02 06:54:05;;;;;;;1.02;0.70;;;;;;;17.93;37.46;99119.00;5000632;28;20037;-68
2022/09/02 06:56:35;;;;;;;0.75;0.60;;;;;;;17.58;37.73;99121.28;5033868;28;20041;-69
2022/09/02 06:59:01;;;;;;;1.33;0.68;;;;;;;17.68;37.26;99121.63;5000316;28;20045;-68
2022/09/02 07:02:06;;;;;;;3.70;0.73;;;;;;;18.02;36.93;99115.03;5006596;28;20052;-70
2022/09/02 07:07:20;;;;;;;0.55;0.30;;;;;;;18.90;33.92;99120.00;5013627;28;20037;-69
2022/09/02 07:09:52;;;;;;;0.47;0.43;;;;;;;18.92;33.86;99099.09;5004098;28;20045;-70
2022/09/02 07:12:18;;;;;;;0.77;0.40;;;;;;;18.76;34.38;99121.19;5012638;28;20148;-69
2022/09/02 07:14:53;;;;;;;2.30;0.40;;;;;;;17.47;36.24;99115.75;4997138;28;20436;-70
2022/09/02 07:17:27;;;;;;;7.25;0.80;;;;;;;17.32;38.10;99136.66;5012775;28;20045;-70
2022/09/02 07:19:59;;;;;;;2.75;0.80;;;;;;;16.92;42.20;99135.16;4998011;28;20084;-69
2022/09/02 07:22:27;;;;;;;3.03;0.80;;;;;;;16.87;43.31;99126.94;4997554;28;20695;-69
2022/09/02 07:24:53;;;;;;;1.35;0.80;;;;;;;16.72;44.20;99129.84;5001528;28;20488;-69
2022/09/02 07:27:20;;;;;;;2.00;0.50;;;;;;;16.89;43.47;99141.78;4999341;28;20140;-70
2022/09/02 07:29:48;;;;;;;1.05;0.50;;;;;;;17.13;44.45;99146.44;4996600;28;20075;-71
2022/09/02 07:32:17;;;;;;;1.65;0.57;;;;;;;17.48;43.27;99157.69;4996557;28;20502;-69
2022/09/02 07:34:43;;;;;;;4.20;0.50;;;;;;;17.37;44.00;99150.28;4996052;28;20047;-70
2022/09/02 07:37:11;;;;;;;0.77;0.43;;;;;;;17.16;43.57;99146.00;4980420;28;20041;-69
2022/09/02 07:39:40;;;;;;;2.25;0.52;;;;;;;17.01;44.04;99152.66;4980184;28;20044;-69
2022/09/02 07:42:06;;;;;;;0.85;0.57;;;;;;;16.81;42.75;99140.13;5031427;28;20080;-71
2022/09/02 07:44:32;;;;;;;1.45;0.80;;;;;;;16.75;43.13;99151.72;4999574;28;20076;-68
2022/09/02 07:46:58;;;;;;;0.95;0.60;;;;;;;16.85;43.14;99145.91;5031868;28;20102;-68
2022/09/02 07:49:27;;;;;;;7.93;0.70;;;;;;;16.92;42.44;99146.72;5031723;28;20048;-68
2022/09/02 07:51:54;;;;;;;0.95;0.60;;;;;;;16.73;42.30;99151.09;5032103;28;20056;-68
2022/09/02 07:54:23;;;;;;;0.70;0.60;;;;;;;17.08;42.12;99151.63;4998895;28;20051;-68
2022/09/02 07:56:50;;;;;;;0.65;0.65;;;;;;;19.92;37.42;99168.47;5031891;28;20048;-69
2022/09/02 07:59:20;;;;;;;2.25;0.70;;;;;;;23.34;30.14;99149.22;4998740;28;20049;-69
2022/09/02 08:01:47;;;;;;;3.10;0.98;;;;;;;26.45;25.57;99144.84;5031959;28;20045;-70
2022/09/02 08:04:15;;;;;;;4.82;1.23;;;;;;;28.02;23.09;99142.53;5047609;28;20090;-70
2022/09/02 08:06:41;;;;;;;2.08;0.70;;;;;;;27.77;22.07;99137.97;5015007;28;20040;-69
2022/09/02 08:09:11;;;;;;;1.83;0.80;;;;;;;26.87;22.61;99133.66;4998491;28;20122;-69
2022/09/02 08:11:43;;;;;;;0.40;0.40;;;;;;;25.12;23.33;99134.09;5014704;28;20140;-70
2022/09/02 08:14:12;;;;;;;0.57;0.57;;;;;;;24.57;24.79;99139.13;5047174;28;20049;-71
2022/09/02 08:16:38;;;;;;;4.88;0.60;;;;;;;23.55;25.07;99122.13;4998959;28;20068;-69
2022/09/02 08:19:06;;;;;;;1.00;0.85;;;;;;;22.80;26.38;99154.41;5015018;28;20041;-68
2022/09/02 08:21:32;;;;;;;0.88;0.73;;;;;;;21.68;28.50;99146.44;5027500;28;20041;-66
2022/09/02 08:23:59;;;;;;;2.75;0.85;;;;;;;21.71;28.27;99143.28;5013969;28;20444;-67
2022/09/02 08:26:27;;;;;;;2.08;0.80;;;;;;;22.44;27.20;99148.66;4997013;28;20044;-69
2022/09/02 08:28:54;;;;;;;4.78;0.85;;;;;;;22.88;26.95;99147.78;5014675;28;20048;-70
2022/09/02 08:31:20;;;;;;;2.85;0.60;;;;;;;22.86;26.67;99153.41;5031166;28;20033;-68
2022/09/02 08:33:46;;;;;;;2.05;0.80;;;;;;;22.70;26.88;99158.84;5014340;28;20143;-68
2022/09/02 08:36:13;;;;;;;0.82;0.63;;;;;;;23.10;26.82;99164.84;4998161;28;20069;-68
2022/09/02 08:38:43;;;;;;;5.90;1.40;;;;;;;23.51;25.78;99168.97;5015198;28;20459;-69
2022/09/02 08:41:16;;;;;;;12.23;1.75;;;;;;;24.48;24.72;99165.09;4998060;28;20040;-68
2022/09/02 08:43:43;;;;;;;5.25;0.95;;;;;;;24.33;24.51;99154.13;5030578;28;20512;-70
2022/09/02 08:46:10;;;;;;;2.05;0.60;;;;;;;24.06;25.29;99183.19;5027357;28;20057;-68
2022/09/02 08:48:42;;;;;;;1.92;0.90;;;;;;;23.28;25.42;99180.84;5011210;28;20045;-72
2022/09/02 08:51:14;;;;;;;6.88;1.38;;;;;;;22.38;26.54;99176.69;5027096;28;20045;-69
2022/09/02 08:53:51;;;;;;;4.47;1.00;;;;;;;21.40;27.56;99170.75;5027355;28;20038;-68
2022/09/02 08:56:17;;;;;;;3.92;0.50;;;;;;;20.83;28.71;99202.13;5027549;28;20053;-69
2022/09/02 08:58:48;;;;;;;3.72;0.98;;;;;;;20.54;30.23;99196.81;5011760;28;20046;-68
2022/09/02 09:01:23;;;;;;;;;;;;;;;19.91;31.62;99188.41;5018606;28;20096;-68
2022/09/02 09:04:14;;;;;;;3.72;0.80;;;;;;;19.86;32.94;99197.19;4994643;28;20009;-68
2022/09/02 09:07:22;;;;;;;1.20;0.60;;;;;;;20.17;33.10;99203.41;5011143;28;20045;-66
2022/09/02 09:09:51;;;;;;;3.28;0.90;;;;;;;20.37;32.99;99203.94;5011031;28;20131;-68
2022/09/02 09:12:40;;;;;;;0.88;0.60;;;;;;;21.94;30.52;99218.91;4994589;28;20056;-68
2022/09/02 09:15:30;;;;;;;2.20;0.80;;;;;;;22.78;29.04;99199.88;4994410;28;20056;-72
2022/09/02 09:17:58;;;;;;;2.53;0.70;;;;;;;22.55;28.98;99218.16;4978579;28;20243;-67
2022/09/02 09:20:36;;;;;;;0.85;0.47;;;;;;;22.03;29.77;99225.59;4979062;28;20041;-68
2022/09/02 09:23:32;;;;;;;1.52;0.70;;;;;;;21.36;30.72;99227.13;5027706;28;20052;-68
2022/09/02 09:26:13;;;;;;;3.45;0.60;;;;;;;21.04;32.64;99230.44;5016028;28;20060;-67
2022/09/02 09:28:41;;;;;;;8.32;1.50;;;;;;;21.72;31.73;99234.13;4997666;28;20047;-68
2022/09/02 09:31:15;;;;;;;0.90;0.60;;;;;;;22.43;29.81;99237.16;5015790;28;20199;-72
2022/09/02 09:34:00;;;;;;;2.40;0.75;;;;;;;24.51;26.39;99236.00;4981128;28;20528;-68
2022/09/02 09:36:54;;;;;;;2.58;0.73;;;;;;;25.33;24.24;99244.59;5030605;28;20691;-68
2022/09/02 09:39:29;;;;;;;3.40;0.95;;;;;;;25.50;24.30;99242.53;5031187;28;20057;-69
2022/09/02 09:41:58;;;;;;;1.10;0.40;;;;;;;24.21;25.64;99226.75;5031065;28;20072;-69
2022/09/02 09:44:45;;;;;;;4.38;0.75;;;;;;;23.77;25.74;99249.56;4998507;28;20460;-67
2022/09/02 09:47:19;;;;;;;1.98;0.50;;;;;;;23.60;25.61;99232.50;5013506;28;20046;-67
2022/09/02 09:49:50;;;;;;;0.47;0.47;;;;;;;23.58;25.30;99237.34;5030381;28;20045;-69
2022/09/02 09:52:26;;;;;;;3.95;0.50;;;;;;;22.64;25.98;99244.59;5030635;28;20145;-68
2022/09/02 09:55:25;;;;;;;1.20;0.60;;;;;;;23.64;25.46;99249.91;4981972;28;20060;-67
2022/09/02 09:57:53;;;;;;;0.30;0.30;;;;;;;23.34;24.92;99242.19;5023746;28;20053;-69
2022/09/02 10:00:31;;;;;;;3.38;0.60;;;;;;;25.63;22.85;99250.19;5030472;28;20042;-67
2022/09/02 10:03:02;;;;;;;2.95;0.40;;;;;;;27.37;20.65;99250.81;5024350;28;20554;-67
2022/09/02 10:05:31;;;;;;;1.17;0.70;;;;;;;27.89;19.83;99239.53;5014376;28;20068;-68
2022/09/02 10:08:19;;;;;;;1.20;0.60;;;;;;;29.43;17.43;99239.47;5013470;28;20068;-68
2022/09/02 10:11:07;;;;;;;12.82;0.70;;;;;;;29.93;16.20;99238.09;4997583;28;20049;-69
2022/09/02 10:13:35;;;;;;;1.80;0.40;;;;;;;27.89;18.35;99247.72;5030212;28;20091;-68
2022/09/02 10:16:31;;;;;;;4.40;0.70;;;;;;;26.81;19.24;99245.66;5023686;28;20049;-69
2022/09/02 10:19:15;;;;;;;2.53;0.65;;;;;;;24.92;21.83;99225.53;5029652;28;20072;-67
2022/09/02 10:21:55;;;;;;;2.60;0.77;;;;;;;27.06;19.47;99215.69;5021586;28;20068;-67
2022/09/02 10:24:21;;;;;;;1.75;0.63;;;;;;;27.06;19.29;99249.19;5030751;28;20389;-68
2022/09/02 10:26:49;;;;;;;0.88;0.50;;;;;;;27.15;19.25;99254.94;5031634;28;20520;-69
2022/09/02 10:29:27;;;;;;;5.15;0.50;;;;;;;26.05;19.26;99255.56;5049497;28;20504;-68
2022/09/02 10:32:11;;;;;;;2.85;0.50;;;;;;;25.58;20.37;99265.69;5017240;28;20071;-68
2022/09/02 10:35:10;;;;;;;2.80;0.52;;;;;;;24.00;22.25;99250.13;5050189;28;20094;-69
2022/09/02 10:38:14;;;;;;;1.73;0.50;;;;;;;22.87;23.73;99241.72;5048661;28;20049;-68
2022/09/02 10:40:45;;;;;;;0.75;0.50;;;;;;;23.03;24.07;99246.28;5041820;28;20045;-68
2022/09/02 10:43:48;;;;;;;1.45;0.77;;;;;;;24.11;22.28;99265.44;5000410;28;20041;-68
2022/09/02 10:46:17;;;;;;;6.07;0.70;;;;;;;25.19;21.32;99264.31;5016357;28;20048;-68
2022/09/02 10:48:42;;;;;;;3.70;0.50;;;;;;;23.56;22.28;99264.72;5016390;28;20044;-67
2022/09/02 10:51:23;;;;;;;1.80;0.50;;;;;;;25.11;21.34;99276.47;5032782;28;20041;-67
2022/09/02 10:54:10;;;;;;;2.03;0.50;;;;;;;25.46;20.62;99282.22;5049685;28;20053;-68
2022/09/02 10:56:49;;;;;;;0.55;0.55;;;;;;;24.46;21.63;99273.16;5016548;28;20036;-67
2022/09/02 11:00:01;;;;;;;1.52;0.60;;;;;;;23.27;23.00;99266.75;5016103;28;20041;-68
2022/09/02 11:02:53;;;;;;;2.00;0.70;;;;;;;21.03;26.17;99285.50;5032851;28;20048;-67
2022/09/02 11:05:23;;;;;;;2.80;0.45;;;;;;;20.07;28.42;99298.28;5049248;28;20049;-67
2022/09/02 11:08:11;;;;;;;1.60;0.50;;;;;;;18.81;31.16;99273.91;5032426;28;20065;-67
2022/09/02 11:10:46;;;;;;;2.58;0.60;;;;;;;19.26;31.73;99313.88;5032599;28;20132;-70
2022/09/02 11:13:50;;;;;;;2.38;1.17;;;;;;;19.42;33.20;99334.09;5015139;28;20516;-67
2022/09/02 11:16:20;;;;;;;2.10;0.80;;;;;;;19.96;33.89;99307.13;4997974;28;20063;-69
2022/09/02 11:18:56;;;;;;;0.60;0.60;;;;;;;21.71;31.79;99351.44;5042051;28;20048;-67
2022/09/02 11:22:01;;;;;;;2.47;0.70;;;;;;;23.88;27.43;99333.50;5032980;28;20045;-67
2022/09/02 11:24:34;;;;;;;1.23;0.57;;;;;;;25.41;25.39;99355.59;5012902;28;20053;-70
2022/09/02 11:27:19;;;;;;;1.85;0.50;;;;;;;25.05;24.54;99341.94;4996099;28;20123;-67
2022/09/02 11:30:03;;;;;;;0.60;0.50;;;;;;;23.78;25.98;99336.09;4996277;28;20107;-69
2022/09/02 11:32:42;;;;;;;1.88;0.40;;;;;;;23.22;27.11;99338.97;5029144;28;20585;-69
2022/09/02 11:35:26;;;;;;;1.95;0.40;;;;;;;23.16;27.51;99353.50;4996331;28;20045;-69
2022/09/02 11:38:03;;;;;;;2.45;0.60;;;;;;;22.77;28.41;99355.28;5012357;28;20081;-69
2022/09/02 11:40:49;;;;;;;3.10;0.60;;;;;;;22.41;29.34;99344.00;4996227;28;20527;-68
2022/09/02 11:43:30;;;;;;;0.50;0.50;;;;;;;21.96;29.53;99340.38;5012854;28;20049;-68
2022/09/02 11:46:06;;;;;;;0.77;0.50;;;;;;;21.94;29.30;99356.00;5012116;28;20080;-69
2022/09/02 11:49:07;;;;;;;1.77;0.60;;;;;;;21.43;30.12;99337.81;5014981;28;20064;-68
2022/09/02 11:51:46;;;;;;;1.00;0.52;;;;;;;21.35;30.73;99344.38;5018557;28;20055;-68
2022/09/02 11:54:15;;;;;;;2.15;0.40;;;;;;;21.05;31.41;99369.81;4999348;28;20048;-68
2022/09/02 11:56:47;;;;;;;2.42;0.60;;;;;;;20.49;34.85;99366.66;5015507;28;20049;-68